sensor_id;sensor_type;location;lat;lon;timestamp;temperature;humidity
42085;DHT22;27746;52.228;20.890;2023-04-03T00:03:20;2.60;96.20
42085;DHT22;27746;52.228;20.890;2023-04-03T00:05:47;2.50;96.10
42085;DHT22;27746;52.228;20.890;2023-04-03T00:10:42;2.50;95.70
42085;DHT22;27746;52.228;20.890;2023-04-03T00:13:09;2.50;95.80
42085;DHT22;27746;52.228;20.890;2023-04-03T00:15:37;2.50;96.00
42085;DHT22;27746;52.228;20.890;2023-04-03T00:18:04;2.40;95.90
42085;DHT22;27746;52.228;20.890;2023-04-03T00:20:32;2.30;95.70
42085;DHT22;27746;52.228;20.890;2023-04-03T00:23:00;2.40;95.90
42085;DHT22;27746;52.228;20.890;2023-04-03T00:25:27;2.30;96.00
42085;DHT22;27746;52.228;20.890;2023-04-03T00:27:55;2.30;96.20
42085;DHT22;27746;52.228;20.890;2023-04-03T00:30:22;2.30;96.20
42085;DHT22;27746;52.228;20.890;2023-04-03T00:32:50;2.20;96.50
42085;DHT22;27746;52.228;20.890;2023-04-03T00:35:19;2.20;95.90
42085;DHT22;27746;52.228;20.890;2023-04-03T00:37:46;2.10;96.10
42085;DHT22;27746;52.228;20.890;2023-04-03T00:40:14;2.10;96.20
42085;DHT22;27746;52.228;20.890;2023-04-03T00:42:42;1.90;95.90
42085;DHT22;27746;52.228;20.890;2023-04-03T00:45:30;1.90;95.70
42085;DHT22;27746;52.228;20.890;2023-04-03T00:47:58;2.00;95.90
42085;DHT22;27746;52.228;20.890;2023-04-03T00:50:27;1.90;96.00
42085;DHT22;27746;52.228;20.890;2023-04-03T00:52:55;1.90;96.00
42085;DHT22;27746;52.228;20.890;2023-04-03T00:55:22;1.90;95.60
42085;DHT22;27746;52.228;20.890;2023-04-03T01:00:19;1.80;95.70
42085;DHT22;27746;52.228;20.890;2023-04-03T01:02:49;1.80;95.80
42085;DHT22;27746;52.228;20.890;2023-04-03T01:05:17;1.80;95.80
42085;DHT22;27746;52.228;20.890;2023-04-03T01:07:45;1.70;95.70
42085;DHT22;27746;52.228;20.890;2023-04-03T01:10:14;1.70;95.40
42085;DHT22;27746;52.228;20.890;2023-04-03T01:12:44;1.70;95.60
42085;DHT22;27746;52.228;20.890;2023-04-03T01:15:16;1.60;95.50
42085;DHT22;27746;52.228;20.890;2023-04-03T01:18:03;1.70;95.60
42085;DHT22;27746;52.228;20.890;2023-04-03T01:23:50;1.60;95.70
42085;DHT22;27746;52.228;20.890;2023-04-03T01:26:19;1.60;95.30
42085;DHT22;27746;52.228;20.890;2023-04-03T01:28:46;1.50;95.30
42085;DHT22;27746;52.228;20.890;2023-04-03T01:31:19;1.30;95.40
42085;DHT22;27746;52.228;20.890;2023-04-03T01:33:49;1.50;95.50
42085;DHT22;27746;52.228;20.890;2023-04-03T01:36:18;1.40;95.50
42085;DHT22;27746;52.228;20.890;2023-04-03T01:38:46;1.40;95.50
42085;DHT22;27746;52.228;20.890;2023-04-03T01:43:41;1.40;95.60
42085;DHT22;27746;52.228;20.890;2023-04-03T01:46:07;1.30;95.50
42085;DHT22;27746;52.228;20.890;2023-04-03T01:48:34;1.30;96.00
42085;DHT22;27746;52.228;20.890;2023-04-03T01:51:03;1.30;95.80
42085;DHT22;27746;52.228;20.890;2023-04-03T01:58:24;1.30;95.60
42085;DHT22;27746;52.228;20.890;2023-04-03T02:03:18;1.20;95.80
42085;DHT22;27746;52.228;20.890;2023-04-03T02:05:45;1.20;95.80
42085;DHT22;27746;52.228;20.890;2023-04-03T02:08:14;1.20;95.80
42085;DHT22;27746;52.228;20.890;2023-04-03T02:13:10;1.10;95.80
42085;DHT22;27746;52.228;20.890;2023-04-03T02:15:38;1.10;95.80
42085;DHT22;27746;52.228;20.890;2023-04-03T02:18:05;1.10;95.60
42085;DHT22;27746;52.228;20.890;2023-04-03T02:20:32;1.10;95.80
42085;DHT22;27746;52.228;20.890;2023-04-03T02:23:00;1.00;96.00
42085;DHT22;27746;52.228;20.890;2023-04-03T02:25:29;1.00;95.90
42085;DHT22;27746;52.228;20.890;2023-04-03T02:32:52;1.00;96.10
42085;DHT22;27746;52.228;20.890;2023-04-03T02:35:19;2.50;96.40
42085;DHT22;27746;52.228;20.890;2023-04-03T02:40:13;0.90;95.90
42085;DHT22;27746;52.228;20.890;2023-04-03T02:42:41;0.80;96.30
42085;DHT22;27746;52.228;20.890;2023-04-03T02:45:09;0.80;96.00
42085;DHT22;27746;52.228;20.890;2023-04-03T02:47:36;0.80;96.20
42085;DHT22;27746;52.228;20.890;2023-04-03T02:50:03;0.70;96.20
42085;DHT22;27746;52.228;20.890;2023-04-03T02:52:30;0.70;96.50
42085;DHT22;27746;52.228;20.890;2023-04-03T02:54:57;0.70;96.30
42085;DHT22;27746;52.228;20.890;2023-04-03T02:57:24;0.70;96.50
42085;DHT22;27746;52.228;20.890;2023-04-03T02:59:52;0.70;96.50
42085;DHT22;27746;52.228;20.890;2023-04-03T03:02:19;0.70;96.50
42085;DHT22;27746;52.228;20.890;2023-04-03T03:04:46;0.60;96.70
42085;DHT22;27746;52.228;20.890;2023-04-03T03:07:13;0.60;96.90
42085;DHT22;27746;52.228;20.890;2023-04-03T03:12:07;0.60;96.70
42085;DHT22;27746;52.228;20.890;2023-04-03T03:14:34;0.50;96.80
42085;DHT22;27746;52.228;20.890;2023-04-03T03:17:03;0.50;96.90
42085;DHT22;27746;52.228;20.890;2023-04-03T03:19:29;0.50;97.20
42085;DHT22;27746;52.228;20.890;2023-04-03T03:21:56;0.50;97.30
42085;DHT22;27746;52.228;20.890;2023-04-03T03:24:23;0.40;97.20
42085;DHT22;27746;52.228;20.890;2023-04-03T03:26:50;0.40;97.20
42085;DHT22;27746;52.228;20.890;2023-04-03T03:29:51;0.40;97.10
42085;DHT22;27746;52.228;20.890;2023-04-03T03:32:20;0.30;97.10
42085;DHT22;27746;52.228;20.890;2023-04-03T03:34:46;0.40;97.20
42085;DHT22;27746;52.228;20.890;2023-04-03T03:39:40;0.30;97.50
42085;DHT22;27746;52.228;20.890;2023-04-03T03:44:35;0.20;97.50
42085;DHT22;27746;52.228;20.890;2023-04-03T03:49:32;0.20;98.00
42085;DHT22;27746;52.228;20.890;2023-04-03T03:54:26;0.10;97.90
42085;DHT22;27746;52.228;20.890;2023-04-03T03:56:53;0.20;98.10
42085;DHT22;27746;52.228;20.890;2023-04-03T03:59:20;0.20;98.10
42085;DHT22;27746;52.228;20.890;2023-04-03T04:04:14;0.10;97.90
42085;DHT22;27746;52.228;20.890;2023-04-03T04:06:44;0.00;98.00
42085;DHT22;27746;52.228;20.890;2023-04-03T04:09:10;0.00;98.00
42085;DHT22;27746;52.228;20.890;2023-04-03T04:11:38;0.00;98.60
42085;DHT22;27746;52.228;20.890;2023-04-03T04:16:33;0.00;98.90
42085;DHT22;27746;52.228;20.890;2023-04-03T04:19:00;-0.20;98.70
42085;DHT22;27746;52.228;20.890;2023-04-03T04:23:55;0.00;99.00
42085;DHT22;27746;52.228;20.890;2023-04-03T04:33:48;0.00;99.00
42085;DHT22;27746;52.228;20.890;2023-04-03T04:36:14;-0.10;98.90
42085;DHT22;27746;52.228;20.890;2023-04-03T04:41:12;0.00;98.80
42085;DHT22;27746;52.228;20.890;2023-04-03T04:46:08;0.10;99.10
42085;DHT22;27746;52.228;20.890;2023-04-03T04:51:04;0.20;98.70
42085;DHT22;27746;52.228;20.890;2023-04-03T04:53:32;0.30;98.70
42085;DHT22;27746;52.228;20.890;2023-04-03T04:58:28;0.50;98.20
42085;DHT22;27746;52.228;20.890;2023-04-03T05:00:58;0.60;98.10
42085;DHT22;27746;52.228;20.890;2023-04-03T05:03:26;0.60;97.70
42085;DHT22;27746;52.228;20.890;2023-04-03T05:08:20;0.80;97.50
42085;DHT22;27746;52.228;20.890;2023-04-03T05:13:14;1.00;97.40
42085;DHT22;27746;52.228;20.890;2023-04-03T05:15:42;1.10;97.20
42085;DHT22;27746;52.228;20.890;2023-04-03T05:23:04;1.40;96.40
42085;DHT22;27746;52.228;20.890;2023-04-03T05:25:31;1.50;96.30
42085;DHT22;27746;52.228;20.890;2023-04-03T05:32:54;1.70;95.70
42085;DHT22;27746;52.228;20.890;2023-04-03T05:37:48;1.70;94.40
42085;DHT22;27746;52.228;20.890;2023-04-03T05:40:15;1.60;94.20
42085;DHT22;27746;52.228;20.890;2023-04-03T05:42:43;1.50;94.70
42085;DHT22;27746;52.228;20.890;2023-04-03T05:45:11;1.50;94.80
42085;DHT22;27746;52.228;20.890;2023-04-03T05:47:37;1.50;94.50
42085;DHT22;27746;52.228;20.890;2023-04-03T05:50:06;1.50;94.70
42085;DHT22;27746;52.228;20.890;2023-04-03T05:52:36;1.50;94.80
42085;DHT22;27746;52.228;20.890;2023-04-03T05:55:05;1.40;94.60
42085;DHT22;27746;52.228;20.890;2023-04-03T05:57:35;1.30;94.60
42085;DHT22;27746;52.228;20.890;2023-04-03T06:00:03;1.20;94.30
42085;DHT22;27746;52.228;20.890;2023-04-03T06:07:26;1.10;94.90
42085;DHT22;27746;52.228;20.890;2023-04-03T06:09:55;1.40;94.70
42085;DHT22;27746;52.228;20.890;2023-04-03T06:12:22;1.60;94.40
42085;DHT22;27746;52.228;20.890;2023-04-03T06:14:49;1.70;94.40
42085;DHT22;27746;52.228;20.890;2023-04-03T06:17:18;1.70;93.90
42085;DHT22;27746;52.228;20.890;2023-04-03T06:19:45;1.70;94.00
42085;DHT22;27746;52.228;20.890;2023-04-03T06:24:41;1.80;94.00
42085;DHT22;27746;52.228;20.890;2023-04-03T06:27:10;2.00;94.00
42085;DHT22;27746;52.228;20.890;2023-04-03T06:32:05;2.20;93.50
42085;DHT22;27746;52.228;20.890;2023-04-03T06:34:32;2.30;93.50
42085;DHT22;27746;52.228;20.890;2023-04-03T06:36:59;2.30;93.10
42085;DHT22;27746;52.228;20.890;2023-04-03T06:39:26;2.40;93.40
42085;DHT22;27746;52.228;20.890;2023-04-03T06:41:54;2.50;92.70
42085;DHT22;27746;52.228;20.890;2023-04-03T06:51:47;2.80;92.80
42085;DHT22;27746;52.228;20.890;2023-04-03T06:54:14;2.90;92.70
42085;DHT22;27746;52.228;20.890;2023-04-03T06:56:41;3.00;92.70
42085;DHT22;27746;52.228;20.890;2023-04-03T06:59:09;2.90;92.10
42085;DHT22;27746;52.228;20.890;2023-04-03T07:01:36;3.00;92.20
42085;DHT22;27746;52.228;20.890;2023-04-03T07:04:03;3.10;92.20
42085;DHT22;27746;52.228;20.890;2023-04-03T07:06:31;3.30;92.40
42085;DHT22;27746;52.228;20.890;2023-04-03T07:08:59;3.20;91.20
42085;DHT22;27746;52.228;20.890;2023-04-03T07:11:26;3.40;91.90
42085;DHT22;27746;52.228;20.890;2023-04-03T07:13:53;3.40;91.30
42085;DHT22;27746;52.228;20.890;2023-04-03T07:16:23;3.50;91.70
42085;DHT22;27746;52.228;20.890;2023-04-03T07:21:17;3.80;91.50
42085;DHT22;27746;52.228;20.890;2023-04-03T07:23:44;3.80;90.60
42085;DHT22;27746;52.228;20.890;2023-04-03T07:26:11;3.80;90.70
42085;DHT22;27746;52.228;20.890;2023-04-03T07:28:39;3.90;90.70
42085;DHT22;27746;52.228;20.890;2023-04-03T07:31:10;3.80;90.30
42085;DHT22;27746;52.228;20.890;2023-04-03T07:33:40;3.90;90.30
42085;DHT22;27746;52.228;20.890;2023-04-03T07:36:10;4.00;90.40
42085;DHT22;27746;52.228;20.890;2023-04-03T07:41:12;1.20;86.70
42085;DHT22;27746;52.228;20.890;2023-04-03T07:43:41;4.20;88.40
42085;DHT22;27746;52.228;20.890;2023-04-03T07:46:08;5.20;90.00
42085;DHT22;27746;52.228;20.890;2023-04-03T07:48:35;4.60;89.60
42085;DHT22;27746;52.228;20.890;2023-04-03T07:51:04;4.80;89.30
42085;DHT22;27746;52.228;20.890;2023-04-03T07:53:31;4.90;87.70
42085;DHT22;27746;52.228;20.890;2023-04-03T07:55:59;5.00;86.20
42085;DHT22;27746;52.228;20.890;2023-04-03T08:03:21;5.30;86.00
42085;DHT22;27746;52.228;20.890;2023-04-03T08:05:49;5.30;84.20
42085;DHT22;27746;52.228;20.890;2023-04-03T08:08:19;5.20;82.80
42085;DHT22;27746;52.228;20.890;2023-04-03T08:10:49;5.10;81.50
42085;DHT22;27746;52.228;20.890;2023-04-03T08:13:16;5.10;83.20
42085;DHT22;27746;52.228;20.890;2023-04-03T08:15:43;5.20;80.70
42085;DHT22;27746;52.228;20.890;2023-04-03T08:23:05;5.10;78.90
42085;DHT22;27746;52.228;20.890;2023-04-03T08:25:34;5.00;79.20
42085;DHT22;27746;52.228;20.890;2023-04-03T08:30:31;5.10;78.80
42085;DHT22;27746;52.228;20.890;2023-04-03T08:33:00;5.30;80.70
42085;DHT22;27746;52.228;20.890;2023-04-03T08:35:27;5.50;80.90
42085;DHT22;27746;52.228;20.890;2023-04-03T08:40:23;5.60;75.20
42085;DHT22;27746;52.228;20.890;2023-04-03T08:43:01;5.50;74.00
42085;DHT22;27746;52.228;20.890;2023-04-03T08:45:38;5.60;74.90
42085;DHT22;27746;52.228;20.890;2023-04-03T08:48:13;5.50;72.20
42085;DHT22;27746;52.228;20.890;2023-04-03T08:50:44;5.30;72.60
42085;DHT22;27746;52.228;20.890;2023-04-03T08:53:15;5.40;72.70
42085;DHT22;27746;52.228;20.890;2023-04-03T08:55:44;5.50;72.30
42085;DHT22;27746;52.228;20.890;2023-04-03T08:58:16;5.40;72.70
42085;DHT22;27746;52.228;20.890;2023-04-03T09:00:46;5.30;70.60
42085;DHT22;27746;52.228;20.890;2023-04-03T09:03:15;5.30;72.00
42085;DHT22;27746;52.228;20.890;2023-04-03T09:05:46;5.40;71.90
42085;DHT22;27746;52.228;20.890;2023-04-03T09:08:21;5.30;71.40
42085;DHT22;27746;52.228;20.890;2023-04-03T09:10:49;5.40;70.70
42085;DHT22;27746;52.228;20.890;2023-04-03T09:13:28;5.40;70.80
42085;DHT22;27746;52.228;20.890;2023-04-03T09:18:28;5.30;69.30
42085;DHT22;27746;52.228;20.890;2023-04-03T09:21:04;5.30;70.00
42085;DHT22;27746;52.228;20.890;2023-04-03T09:23:39;5.30;71.00
42085;DHT22;27746;52.228;20.890;2023-04-03T09:26:14;5.40;70.20
42085;DHT22;27746;52.228;20.890;2023-04-03T09:28:43;5.50;71.30
42085;DHT22;27746;52.228;20.890;2023-04-03T09:31:19;5.60;70.10
42085;DHT22;27746;52.228;20.890;2023-04-03T09:33:48;5.60;68.90
42085;DHT22;27746;52.228;20.890;2023-04-03T09:36:38;5.60;70.10
42085;DHT22;27746;52.228;20.890;2023-04-03T09:39:07;6.00;71.00
42085;DHT22;27746;52.228;20.890;2023-04-03T09:41:36;6.20;70.30
42085;DHT22;27746;52.228;20.890;2023-04-03T09:44:20;6.30;68.20
42085;DHT22;27746;52.228;20.890;2023-04-03T09:54:31;6.30;68.20
42085;DHT22;27746;52.228;20.890;2023-04-03T09:57:01;6.40;68.00
42085;DHT22;27746;52.228;20.890;2023-04-03T09:59:31;6.60;67.10
42085;DHT22;27746;52.228;20.890;2023-04-03T10:01:59;6.70;67.10
42085;DHT22;27746;52.228;20.890;2023-04-03T10:04:37;7.90;67.40
42085;DHT22;27746;52.228;20.890;2023-04-03T10:07:30;6.80;66.50
42085;DHT22;27746;52.228;20.890;2023-04-03T10:09:59;6.60;65.30
42085;DHT22;27746;52.228;20.890;2023-04-03T10:12:27;6.40;65.00
42085;DHT22;27746;52.228;20.890;2023-04-03T10:14:55;6.30;66.20
42085;DHT22;27746;52.228;20.890;2023-04-03T10:17:29;6.50;66.50
42085;DHT22;27746;52.228;20.890;2023-04-03T10:20:05;6.70;66.20
42085;DHT22;27746;52.228;20.890;2023-04-03T10:22:41;7.00;66.20
42085;DHT22;27746;52.228;20.890;2023-04-03T10:25:20;7.10;65.90
42085;DHT22;27746;52.228;20.890;2023-04-03T10:27:53;7.10;65.10
42085;DHT22;27746;52.228;20.890;2023-04-03T10:30:30;6.90;64.80
42085;DHT22;27746;52.228;20.890;2023-04-03T10:33:09;7.00;65.40
42085;DHT22;27746;52.228;20.890;2023-04-03T10:35:44;7.30;67.00
42085;DHT22;27746;52.228;20.890;2023-04-03T10:38:21;7.40;65.20
42085;DHT22;27746;52.228;20.890;2023-04-03T10:40:55;7.30;62.20
42085;DHT22;27746;52.228;20.890;2023-04-03T10:43:29;7.20;62.40
42085;DHT22;27746;52.228;20.890;2023-04-03T10:46:02;7.30;63.60
42085;DHT22;27746;52.228;20.890;2023-04-03T10:48:57;7.30;63.40
42085;DHT22;27746;52.228;20.890;2023-04-03T10:51:34;7.60;64.30
42085;DHT22;27746;52.228;20.890;2023-04-03T10:54:11;7.80;64.90
42085;DHT22;27746;52.228;20.890;2023-04-03T10:56:41;7.80;64.00
42085;DHT22;27746;52.228;20.890;2023-04-03T10:59:18;7.80;62.20
42085;DHT22;27746;52.228;20.890;2023-04-03T11:01:51;7.60;62.60
42085;DHT22;27746;52.228;20.890;2023-04-03T11:04:19;7.50;62.60
42085;DHT22;27746;52.228;20.890;2023-04-03T11:06:51;7.50;63.90
42085;DHT22;27746;52.228;20.890;2023-04-03T11:09:25;7.50;60.90
42085;DHT22;27746;52.228;20.890;2023-04-03T11:11:55;7.60;60.20
42085;DHT22;27746;52.228;20.890;2023-04-03T11:14:26;7.70;61.40
42085;DHT22;27746;52.228;20.890;2023-04-03T11:17:01;7.80;61.30
42085;DHT22;27746;52.228;20.890;2023-04-03T11:19:35;7.70;61.50
42085;DHT22;27746;52.228;20.890;2023-04-03T11:22:14;7.80;60.60
42085;DHT22;27746;52.228;20.890;2023-04-03T11:24:50;8.00;61.00
42085;DHT22;27746;52.228;20.890;2023-04-03T11:27:22;8.20;61.20
42085;DHT22;27746;52.228;20.890;2023-04-03T11:29:52;8.30;61.40
42085;DHT22;27746;52.228;20.890;2023-04-03T11:35:26;7.80;58.10
42085;DHT22;27746;52.228;20.890;2023-04-03T11:37:54;7.90;58.90
42085;DHT22;27746;52.228;20.890;2023-04-03T11:40:25;8.00;58.40
42085;DHT22;27746;52.228;20.890;2023-04-03T11:42:55;8.20;59.10
42085;DHT22;27746;52.228;20.890;2023-04-03T11:45:35;8.50;60.60
42085;DHT22;27746;52.228;20.890;2023-04-03T11:48:05;8.80;59.60
42085;DHT22;27746;52.228;20.890;2023-04-03T11:50:43;8.70;58.20
42085;DHT22;27746;52.228;20.890;2023-04-03T11:53:32;8.30;59.10
42085;DHT22;27746;52.228;20.890;2023-04-03T11:56:28;8.30;59.40
42085;DHT22;27746;52.228;20.890;2023-04-03T11:59:15;8.60;59.90
42085;DHT22;27746;52.228;20.890;2023-04-03T12:01:47;8.60;59.10
42085;DHT22;27746;52.228;20.890;2023-04-03T12:04:15;8.80;59.60
42085;DHT22;27746;52.228;20.890;2023-04-03T12:10:12;8.70;57.30
42085;DHT22;27746;52.228;20.890;2023-04-03T12:12:43;8.60;56.90
42085;DHT22;27746;52.228;20.890;2023-04-03T12:15:47;8.40;58.70
42085;DHT22;27746;52.228;20.890;2023-04-03T12:21:17;8.10;58.30
42085;DHT22;27746;52.228;20.890;2023-04-03T12:24:03;8.60;58.20
42085;DHT22;27746;52.228;20.890;2023-04-03T12:26:44;8.50;57.60
42085;DHT22;27746;52.228;20.890;2023-04-03T12:29:21;8.70;58.90
42085;DHT22;27746;52.228;20.890;2023-04-03T12:32:00;8.60;57.60
42085;DHT22;27746;52.228;20.890;2023-04-03T12:34:43;8.10;56.90
42085;DHT22;27746;52.228;20.890;2023-04-03T12:37:27;8.70;56.40
42085;DHT22;27746;52.228;20.890;2023-04-03T12:40:07;9.40;56.50
42085;DHT22;27746;52.228;20.890;2023-04-03T12:42:47;9.70;54.80
42085;DHT22;27746;52.228;20.890;2023-04-03T12:45:20;9.90;54.10
42085;DHT22;27746;52.228;20.890;2023-04-03T12:47:52;9.40;54.00
42085;DHT22;27746;52.228;20.890;2023-04-03T12:50:22;9.00;55.30
42085;DHT22;27746;52.228;20.890;2023-04-03T12:52:56;8.90;56.20
42085;DHT22;27746;52.228;20.890;2023-04-03T12:55:24;9.10;56.30
42085;DHT22;27746;52.228;20.890;2023-04-03T12:57:52;9.10;55.60
42085;DHT22;27746;52.228;20.890;2023-04-03T13:00:30;9.60;54.80
42085;DHT22;27746;52.228;20.890;2023-04-03T13:02:59;9.40;54.70
42085;DHT22;27746;52.228;20.890;2023-04-03T13:07:59;9.10;55.60
42085;DHT22;27746;52.228;20.890;2023-04-03T13:10:27;8.90;55.70
42085;DHT22;27746;52.228;20.890;2023-04-03T13:12:56;8.50;56.20
42085;DHT22;27746;52.228;20.890;2023-04-03T13:15:28;8.20;56.80
42085;DHT22;27746;52.228;20.890;2023-04-03T13:17:56;7.80;56.80
42085;DHT22;27746;52.228;20.890;2023-04-03T13:20:26;7.60;56.30
42085;DHT22;27746;52.228;20.890;2023-04-03T13:22:57;7.60;56.90
42085;DHT22;27746;52.228;20.890;2023-04-03T13:25:27;7.70;57.20
42085;DHT22;27746;52.228;20.890;2023-04-03T13:27:55;7.80;57.60
42085;DHT22;27746;52.228;20.890;2023-04-03T13:30:30;8.10;57.50
42085;DHT22;27746;52.228;20.890;2023-04-03T13:33:00;8.00;58.20
42085;DHT22;27746;52.228;20.890;2023-04-03T13:35:31;7.90;57.90
42085;DHT22;27746;52.228;20.890;2023-04-03T13:38:05;7.90;59.20
42085;DHT22;27746;52.228;20.890;2023-04-03T13:40:32;7.80;58.00
42085;DHT22;27746;52.228;20.890;2023-04-03T13:43:06;7.50;57.20
42085;DHT22;27746;52.228;20.890;2023-04-03T13:45:35;7.50;56.70
42085;DHT22;27746;52.228;20.890;2023-04-03T13:48:16;7.50;56.70
42085;DHT22;27746;52.228;20.890;2023-04-03T13:51:01;7.50;57.70
42085;DHT22;27746;52.228;20.890;2023-04-03T13:53:30;7.50;58.10
42085;DHT22;27746;52.228;20.890;2023-04-03T13:56:05;7.80;58.00
42085;DHT22;27746;52.228;20.890;2023-04-03T13:58:33;8.40;55.60
42085;DHT22;27746;52.228;20.890;2023-04-03T14:01:08;8.20;55.50
42085;DHT22;27746;52.228;20.890;2023-04-03T14:03:42;7.90;56.50
42085;DHT22;27746;52.228;20.890;2023-04-03T14:06:11;7.60;57.00
42085;DHT22;27746;52.228;20.890;2023-04-03T14:08:39;7.40;58.00
42085;DHT22;27746;52.228;20.890;2023-04-03T14:11:13;7.30;58.40
42085;DHT22;27746;52.228;20.890;2023-04-03T14:13:42;7.20;58.90
42085;DHT22;27746;52.228;20.890;2023-04-03T14:16:15;7.20;58.50
42085;DHT22;27746;52.228;20.890;2023-04-03T14:21:13;7.10;58.60
42085;DHT22;27746;52.228;20.890;2023-04-03T14:26:11;6.90;58.80
42085;DHT22;27746;52.228;20.890;2023-04-03T14:33:35;6.50;58.90
42085;DHT22;27746;52.228;20.890;2023-04-03T14:36:05;6.40;59.90
42085;DHT22;27746;52.228;20.890;2023-04-03T14:38:39;6.30;60.20
42085;DHT22;27746;52.228;20.890;2023-04-03T14:41:06;6.30;60.20
42085;DHT22;27746;52.228;20.890;2023-04-03T14:46:02;6.30;61.80
42085;DHT22;27746;52.228;20.890;2023-04-03T14:48:29;6.30;62.80
42085;DHT22;27746;52.228;20.890;2023-04-03T14:50:58;6.40;62.90
42085;DHT22;27746;52.228;20.890;2023-04-03T14:55:55;6.30;62.10
42085;DHT22;27746;52.228;20.890;2023-04-03T14:58:22;6.20;61.70
42085;DHT22;27746;52.228;20.890;2023-04-03T15:00:48;6.10;61.80
42085;DHT22;27746;52.228;20.890;2023-04-03T15:03:17;6.10;62.40
42085;DHT22;27746;52.228;20.890;2023-04-03T15:05:45;6.10;62.10
42085;DHT22;27746;52.228;20.890;2023-04-03T15:08:23;6.10;62.30
42085;DHT22;27746;52.228;20.890;2023-04-03T15:10:51;6.00;62.20
42085;DHT22;27746;52.228;20.890;2023-04-03T15:13:22;5.90;62.50
42085;DHT22;27746;52.228;20.890;2023-04-03T15:15:51;6.00;63.00
42085;DHT22;27746;52.228;20.890;2023-04-03T15:18:21;6.00;63.00
42085;DHT22;27746;52.228;20.890;2023-04-03T15:23:17;5.90;61.20
42085;DHT22;27746;52.228;20.890;2023-04-03T15:25:46;5.80;61.80
42085;DHT22;27746;52.228;20.890;2023-04-03T15:28:19;5.80;62.20
42085;DHT22;27746;52.228;20.890;2023-04-03T15:30:48;5.70;62.80
42085;DHT22;27746;52.228;20.890;2023-04-03T15:33:15;5.60;63.00
42085;DHT22;27746;52.228;20.890;2023-04-03T15:35:42;5.80;63.40
42085;DHT22;27746;52.228;20.890;2023-04-03T15:40:38;5.80;63.80
42085;DHT22;27746;52.228;20.890;2023-04-03T15:45:35;5.70;63.40
42085;DHT22;27746;52.228;20.890;2023-04-03T15:48:04;5.70;63.50
42085;DHT22;27746;52.228;20.890;2023-04-03T15:50:32;5.60;64.00
42085;DHT22;27746;52.228;20.890;2023-04-03T15:53:00;5.60;64.20
42085;DHT22;27746;52.228;20.890;2023-04-03T15:55:29;5.50;64.30
42085;DHT22;27746;52.228;20.890;2023-04-03T15:57:59;5.50;64.80
42085;DHT22;27746;52.228;20.890;2023-04-03T16:03:08;5.40;64.00
42085;DHT22;27746;52.228;20.890;2023-04-03T16:05:37;5.50;64.50
42085;DHT22;27746;52.228;20.890;2023-04-03T16:08:05;5.30;64.00
42085;DHT22;27746;52.228;20.890;2023-04-03T16:10:33;5.30;64.80
42085;DHT22;27746;52.228;20.890;2023-04-03T16:13:01;5.40;64.80
42085;DHT22;27746;52.228;20.890;2023-04-03T16:15:29;5.30;64.80
42085;DHT22;27746;52.228;20.890;2023-04-03T16:17:57;5.30;64.70
42085;DHT22;27746;52.228;20.890;2023-04-03T16:20:26;5.20;65.10
42085;DHT22;27746;52.228;20.890;2023-04-03T16:27:49;5.20;64.50
42085;DHT22;27746;52.228;20.890;2023-04-03T16:30:17;5.20;64.70
42085;DHT22;27746;52.228;20.890;2023-04-03T16:32:45;7.10;65.90
42085;DHT22;27746;52.228;20.890;2023-04-03T16:35:12;5.10;65.10
42085;DHT22;27746;52.228;20.890;2023-04-03T16:37:39;5.10;65.10
42085;DHT22;27746;52.228;20.890;2023-04-03T16:40:08;5.00;64.20
42085;DHT22;27746;52.228;20.890;2023-04-03T16:47:31;4.90;64.10
42085;DHT22;27746;52.228;20.890;2023-04-03T16:57:21;4.80;66.00
42085;DHT22;27746;52.228;20.890;2023-04-03T16:59:50;4.80;66.70
42085;DHT22;27746;52.228;20.890;2023-04-03T17:02:19;8.30;69.30
42085;DHT22;27746;52.228;20.890;2023-04-03T17:04:47;4.70;67.30
42085;DHT22;27746;52.228;20.890;2023-04-03T17:07:14;4.70;68.10
42085;DHT22;27746;52.228;20.890;2023-04-03T17:17:03;4.70;67.80
42085;DHT22;27746;52.228;20.890;2023-04-03T17:21:59;4.70;68.10
42085;DHT22;27746;52.228;20.890;2023-04-03T17:24:26;4.70;68.10
42085;DHT22;27746;52.228;20.890;2023-04-03T17:26:53;4.70;68.00
42085;DHT22;27746;52.228;20.890;2023-04-03T17:34:15;4.70;68.30
42085;DHT22;27746;52.228;20.890;2023-04-03T17:39:11;4.70;68.30
42085;DHT22;27746;52.228;20.890;2023-04-03T17:44:06;4.60;67.50
42085;DHT22;27746;52.228;20.890;2023-04-03T17:56:25;4.60;68.90
42085;DHT22;27746;52.228;20.890;2023-04-03T17:58:53;4.60;69.10
42085;DHT22;27746;52.228;20.890;2023-04-03T18:01:22;4.50;69.50
42085;DHT22;27746;52.228;20.890;2023-04-03T18:03:52;4.50;69.90
42085;DHT22;27746;52.228;20.890;2023-04-03T18:06:23;4.50;70.20
42085;DHT22;27746;52.228;20.890;2023-04-03T18:08:54;4.40;70.20
42085;DHT22;27746;52.228;20.890;2023-04-03T18:11:27;4.40;70.50
42085;DHT22;27746;52.228;20.890;2023-04-03T18:13:56;4.40;70.70
42085;DHT22;27746;52.228;20.890;2023-04-03T18:16:24;4.40;70.70
42085;DHT22;27746;52.228;20.890;2023-04-03T18:18:51;4.30;70.90
42085;DHT22;27746;52.228;20.890;2023-04-03T18:21:19;4.30;70.80
42085;DHT22;27746;52.228;20.890;2023-04-03T18:23:49;4.30;71.20
42085;DHT22;27746;52.228;20.890;2023-04-03T18:28:47;4.10;71.30
42085;DHT22;27746;52.228;20.890;2023-04-03T18:31:16;4.30;71.60
42085;DHT22;27746;52.228;20.890;2023-04-03T18:36:11;4.20;72.20
42085;DHT22;27746;52.228;20.890;2023-04-03T18:41:07;4.10;73.40
42085;DHT22;27746;52.228;20.890;2023-04-03T18:43:35;4.10;73.60
42085;DHT22;27746;52.228;20.890;2023-04-03T18:46:03;4.00;74.00
42085;DHT22;27746;52.228;20.890;2023-04-03T18:48:32;4.00;74.70
42085;DHT22;27746;52.228;20.890;2023-04-03T18:51:01;4.00;74.70
42085;DHT22;27746;52.228;20.890;2023-04-03T18:55:55;3.90;75.80
42085;DHT22;27746;52.228;20.890;2023-04-03T19:00:49;3.90;76.40
42085;DHT22;27746;52.228;20.890;2023-04-03T19:03:17;3.90;76.00
42085;DHT22;27746;52.228;20.890;2023-04-03T19:08:12;3.80;77.20
42085;DHT22;27746;52.228;20.890;2023-04-03T19:10:40;3.80;77.10
42085;DHT22;27746;52.228;20.890;2023-04-03T19:15:34;3.80;77.60
42085;DHT22;27746;52.228;20.890;2023-04-03T19:20:29;3.80;77.60
42085;DHT22;27746;52.228;20.890;2023-04-03T19:22:56;3.80;77.30
42085;DHT22;27746;52.228;20.890;2023-04-03T19:25:23;3.70;77.30
42085;DHT22;27746;52.228;20.890;2023-04-03T19:27:50;3.70;77.50
42085;DHT22;27746;52.228;20.890;2023-04-03T19:30:17;3.70;77.90
42085;DHT22;27746;52.228;20.890;2023-04-03T19:32:45;3.70;78.30
42085;DHT22;27746;52.228;20.890;2023-04-03T19:37:41;3.60;78.90
42085;DHT22;27746;52.228;20.890;2023-04-03T19:40:09;3.70;78.90
42085;DHT22;27746;52.228;20.890;2023-04-03T19:45:08;3.60;78.70
42085;DHT22;27746;52.228;20.890;2023-04-03T19:50:03;3.40;78.70